Portada
METAR-TAF:

METAR-TAF

Aeroports :

Hambantota, Sri Lanka

latitud: 06-17-20N, longitud: 81-07-25E, altitud: 48 m

Observació

L'informe es va fer fa 1 hora i 21 minuts, a les 02:10 UTC
Vent 3 kt del Nord
Temperatura 24°C
Humitat 100%
Pressió 1010 hPa
Visibilitat: 9000 m
Escasses núvols a una alçada de 1800 ft
Núvols disperses a una alçada de 8000 ft

METAR: VCRI 030210Z 35003KT 9000 FEW018 SCT080 24/24 Q1010 NOSIG

Hora: 09:01 (03:31 UTC)

Pronòstic

L'informe es va fer fa 4 hores i 31 minuts, a les 23:00 UTC
Pronòstic vàlid del 03 a les 00 UTC al 04 a les 06 UTC
Vent 5 kt amb direcció variable
Visibilitat 10 km o més
Escasses núvols a una alçada de 1800 ft
Probabilitat 30% :
Temporalment
l' 03 a les 08 UTC al 03 a les 16 UTC
Visibilitat: 7000 m
Escasses núvols a una alçada de 1800 ft
Escasses núvols a una alçada de 2000 ft, Cumulonimbus.

TAF: VCRI 022300Z 0300/0406 VRB05KT 9999 FEW018 TX32/0307Z TN23/0400Z PROB30 TEMPO 0308/0316 7000 -TSRA/SHRA FEW018 FEW020CB

Observacions i pronòstics meteorològics de més de 4000 aeroports (METAR i TAF).

Les estacions disponibles són els punts grocs i vermells al mapa.

Posi el ratolí al punt desitjat per veure el nom de l'estació.

Feu clic per veure les observacions i els pronòstics meteorològics.

Per canviar el mapa: feu clic els botons verds amb una creu de color negre per apropar; al botó verd amb un guió per allunyar la imatge; o en les fletxes verdes per a mapes adjacents.


METAR-TAF: